Terminal Aerodrome Forecast
Issued by NWS

Home | Current Version | Previous Version | Text Only | Print | Product List | Glossary On
Versions: 1 2 3 4 5 6 7 8 9 10 11 12 13 14 15
000
FTPA31 PHFO 241139
TAFHLI
TAF
PHLI 241139Z 2412/2512 05015KT P6SM SCT020 BKN035
     FM242000 05018KT P6SM SCT020 BKN035
     FM250600 05015KT P6SM SCT020 BKN035=

USA.gov is the U.S. government's official web portal to all federal, state and local government web resources and services.